createdAt,value
2023-05-22T00:00:20.892Z,97369.00
2023-05-22T00:02:48.415Z,97370.00
2023-05-22T00:05:18.278Z,97364.00
2023-05-22T00:07:46.288Z,97354.00
2023-05-22T00:10:13.211Z,97361.00
2023-05-22T00:12:40.336Z,97346.00
2023-05-22T00:15:08.133Z,97354.00
2023-05-22T00:17:35.413Z,97347.00
2023-05-22T00:20:10.876Z,97344.00
2023-05-22T00:22:37.953Z,97349.00
2023-05-22T00:25:06.260Z,97349.00
2023-05-22T00:27:34.032Z,97349.00
2023-05-22T00:30:01.258Z,97350.00
2023-05-22T00:32:28.739Z,97347.00
2023-05-22T00:34:55.665Z,97331.00
2023-05-22T00:37:23.198Z,97323.00
2023-05-22T00:39:50.156Z,97336.00
2023-05-22T00:42:18.390Z,97326.00
2023-05-22T00:44:45.821Z,97318.00
2023-05-22T00:47:12.939Z,97319.00
2023-05-22T00:49:41.473Z,97328.00
2023-05-22T00:52:11.111Z,97330.00
2023-05-22T00:54:38.793Z,97325.00
2023-05-22T00:57:06.498Z,97319.00
2023-05-22T00:59:33.625Z,97306.00
2023-05-22T01:02:01.523Z,97315.00
2023-05-22T01:04:32.802Z,97328.00
2023-05-22T01:07:02.808Z,97324.00
2023-05-22T01:09:30.243Z,97309.00
2023-05-22T01:12:31.018Z,97319.00
2023-05-22T01:15:43.898Z,97317.00
2023-05-22T01:18:33.613Z,97309.00
2023-05-22T01:21:24.598Z,97317.00
2023-05-22T01:24:19.366Z,97318.00
2023-05-22T01:27:28.451Z,97320.00
2023-05-22T01:30:38.786Z,97311.00
2023-05-22T01:33:09.304Z,97305.00
2023-05-22T01:35:40.709Z,97306.00
2023-05-22T01:38:09.567Z,97312.00
2023-05-22T01:40:38.088Z,97306.00
2023-05-22T01:43:05.275Z,97309.00
2023-05-22T01:45:32.581Z,97315.00
2023-05-22T01:47:59.466Z,97303.00
2023-05-22T01:50:26.575Z,97311.00
2023-05-22T01:53:14.228Z,97314.00
2023-05-22T01:55:59.362Z,97305.00
2023-05-22T01:58:37.562Z,97309.00
2023-05-22T02:01:06.467Z,97298.00
2023-05-22T02:03:36.226Z,97310.00
2023-05-22T02:06:08.744Z,97303.00
2023-05-22T02:08:41.748Z,97298.00
2023-05-22T02:11:13.646Z,97312.00
2023-05-22T02:13:41.814Z,97297.00
2023-05-22T02:16:09.626Z,97303.00
2023-05-22T02:18:36.575Z,97294.00
2023-05-22T02:21:05.695Z,97311.00
2023-05-22T02:23:32.565Z,97300.00
2023-05-22T02:25:59.533Z,97303.00
2023-05-22T02:28:27.266Z,97297.00
2023-05-22T02:30:54.147Z,97301.00
2023-05-22T02:33:21.471Z,97299.00
2023-05-22T02:35:50.175Z,97289.00
2023-05-22T02:38:17.103Z,97278.00
2023-05-22T02:40:45.002Z,97286.00
2023-05-22T02:43:12.125Z,97285.00
2023-05-22T02:45:39.042Z,97272.00
2023-05-22T02:48:06.628Z,97269.00
2023-05-22T02:50:33.558Z,97276.00
2023-05-22T02:53:00.730Z,97274.00
2023-05-22T02:55:27.563Z,97271.00
2023-05-22T02:57:54.406Z,97268.00
2023-05-22T03:00:22.610Z,97284.00
2023-05-22T03:02:49.998Z,97276.00
2023-05-22T03:05:17.965Z,97274.00
2023-05-22T03:07:48.424Z,97261.00
2023-05-22T03:10:15.688Z,97272.00
2023-05-22T03:12:42.863Z,97270.00
2023-05-22T03:15:11.400Z,97263.00
2023-05-22T03:17:40.024Z,97270.00
2023-05-22T03:20:08.711Z,97268.00
2023-05-22T03:22:35.789Z,97269.00
2023-05-22T03:25:04.274Z,97271.00
2023-05-22T03:27:31.150Z,97268.00
2023-05-22T03:29:58.162Z,97272.00
2023-05-22T03:32:25.347Z,97263.00
2023-05-22T03:34:52.199Z,97268.00
2023-05-22T03:37:19.287Z,97267.00
2023-05-22T03:39:47.134Z,97271.00
2023-05-22T03:42:21.331Z,97276.00
2023-05-22T03:44:49.302Z,97279.00
2023-05-22T03:47:16.937Z,97281.00
2023-05-22T03:49:43.860Z,97282.00
2023-05-22T03:52:11.231Z,97284.00
2023-05-22T03:54:38.243Z,97278.00
2023-05-22T03:57:05.983Z,97284.00
2023-05-22T03:59:33.082Z,97275.00
2023-05-22T04:02:01.145Z,97275.00
2023-05-22T04:04:28.968Z,97279.00
2023-05-22T04:06:58.346Z,97279.00
2023-05-22T04:09:35.530Z,97279.00
2023-05-22T04:12:03.582Z,97278.00
2023-05-22T04:14:30.699Z,97284.00
2023-05-22T04:16:57.542Z,97295.00
2023-05-22T04:19:24.672Z,97296.00
2023-05-22T04:21:52.475Z,97296.00
2023-05-22T04:24:19.626Z,97305.00
2023-05-22T04:26:46.515Z,97292.00
2023-05-22T04:29:14.355Z,97301.00
2023-05-22T04:31:42.101Z,97298.00
2023-05-22T04:34:15.146Z,97300.00
2023-05-22T04:36:45.001Z,97299.00
2023-05-22T04:39:12.910Z,97294.00
2023-05-22T04:41:40.445Z,97307.00
2023-05-22T04:44:07.632Z,97300.00
2023-05-22T04:46:37.913Z,97296.00
2023-05-22T04:49:04.823Z,97285.00
2023-05-22T04:51:32.829Z,97303.00
2023-05-22T04:53:59.972Z,97299.00
2023-05-22T04:56:36.106Z,97298.00
2023-05-22T04:59:05.455Z,97307.00
2023-05-22T05:01:35.032Z,97310.00
2023-05-22T05:04:03.916Z,97314.00
2023-05-22T05:06:31.003Z,97297.00
2023-05-22T05:08:58.074Z,97309.00
2023-05-22T05:11:24.938Z,97311.00
2023-05-22T05:13:51.854Z,97297.00
2023-05-22T05:16:20.496Z,97294.00
2023-05-22T05:18:47.468Z,97304.00
2023-05-22T05:21:14.391Z,97318.00
2023-05-22T05:23:41.697Z,97303.00
2023-05-22T05:26:08.604Z,97302.00
2023-05-22T05:28:35.546Z,97314.00
2023-05-22T05:31:02.847Z,97308.00
2023-05-22T05:33:47.772Z,97305.00
2023-05-22T05:36:25.799Z,97316.00
2023-05-22T05:38:54.180Z,97319.00
2023-05-22T05:41:21.583Z,97303.00
2023-05-22T05:43:53.828Z,97310.00
2023-05-22T05:46:21.303Z,97307.00
2023-05-22T05:48:48.238Z,97315.00
2023-05-22T05:51:16.328Z,97302.00
2023-05-22T05:53:43.989Z,97318.00
2023-05-22T05:56:11.722Z,97315.00
2023-05-22T05:58:38.749Z,97312.00
2023-05-22T06:01:47.128Z,97299.00
2023-05-22T06:04:20.064Z,97303.00
2023-05-22T06:06:48.322Z,97323.00
2023-05-22T06:09:15.364Z,97322.00
2023-05-22T06:12:06.258Z,97311.00
2023-05-22T06:14:33.407Z,97317.00
2023-05-22T06:17:00.296Z,97305.00
2023-05-22T06:19:27.285Z,97317.00
2023-05-22T06:21:54.590Z,97321.00
2023-05-22T06:24:21.745Z,97324.00
2023-05-22T06:26:48.576Z,97308.00
2023-05-22T06:29:15.494Z,97310.00
2023-05-22T06:31:44.209Z,97322.00
2023-05-22T06:34:11.219Z,97325.00
2023-05-22T06:36:38.350Z,97316.00
2023-05-22T06:39:05.238Z,97318.00
2023-05-22T06:41:52.087Z,97313.00
2023-05-22T06:44:18.988Z,97323.00
2023-05-22T06:46:49.053Z,97306.00
2023-05-22T06:49:22.402Z,97323.00
2023-05-22T06:51:52.428Z,97327.00
2023-05-22T06:54:21.168Z,97315.00
2023-05-22T06:56:51.179Z,97315.00
2023-05-22T06:59:20.930Z,97321.00
2023-05-22T07:02:06.200Z,97321.00
2023-05-22T07:04:54.184Z,97322.00
2023-05-22T07:07:35.869Z,97334.00
2023-05-22T07:10:03.417Z,97334.00
2023-05-22T07:12:30.433Z,97333.00
2023-05-22T07:14:59.923Z,97328.00
2023-05-22T07:17:27.398Z,97331.00
2023-05-22T07:19:56.269Z,97323.00
2023-05-22T07:22:23.687Z,97342.00
2023-05-22T07:24:50.671Z,97328.00
2023-05-22T07:27:18.985Z,97340.00
2023-05-22T07:29:48.248Z,97346.00
2023-05-22T07:32:15.467Z,97334.00
2023-05-22T07:34:44.312Z,97338.00
2023-05-22T07:37:14.090Z,97342.00
2023-05-22T07:39:42.461Z,97323.00
2023-05-22T07:42:10.185Z,97322.00
2023-05-22T07:44:43.766Z,97321.00
2023-05-22T07:47:10.740Z,97325.00
2023-05-22T07:49:37.834Z,97330.00
2023-05-22T07:52:05.087Z,97322.00
2023-05-22T07:54:31.945Z,97336.00
2023-05-22T07:57:03.187Z,97337.00
2023-05-22T07:59:34.257Z,97337.00
2023-05-22T08:02:02.227Z,97347.00
2023-05-22T08:04:30.025Z,97342.00
2023-05-22T08:06:58.330Z,97333.00
2023-05-22T08:09:25.336Z,97333.00
2023-05-22T08:11:52.184Z,97339.00
2023-05-22T08:14:19.032Z,97344.00
2023-05-22T08:16:46.015Z,97341.00
2023-05-22T08:19:13.130Z,97355.00
2023-05-22T08:21:40.521Z,97345.00
2023-05-22T08:24:08.486Z,97345.00
2023-05-22T08:26:36.204Z,97338.00
2023-05-22T08:29:03.549Z,97340.00
2023-05-22T08:31:30.797Z,97352.00
2023-05-22T08:34:02.256Z,97350.00
2023-05-22T08:36:31.634Z,97345.00
2023-05-22T08:38:58.524Z,97345.00
2023-05-22T08:41:25.609Z,97358.00
2023-05-22T08:43:52.947Z,97348.00
2023-05-22T08:46:26.315Z,97334.00
2023-05-22T08:48:57.963Z,97350.00
2023-05-22T08:51:35.643Z,97329.00
2023-05-22T08:54:08.239Z,97338.00
2023-05-22T08:56:39.683Z,97341.00
2023-05-22T08:59:10.836Z,97335.00
2023-05-22T09:01:37.905Z,97317.00
2023-05-22T09:04:05.184Z,97335.00
2023-05-22T09:06:32.660Z,97346.00
2023-05-22T09:09:00.178Z,97331.00
2023-05-22T09:11:27.526Z,97326.00
2023-05-22T09:14:11.167Z,97332.00
2023-05-22T09:16:49.689Z,97328.00
2023-05-22T09:19:17.056Z,97343.00
2023-05-22T09:21:48.081Z,97328.00
2023-05-22T09:24:15.198Z,97341.00
2023-05-22T09:26:42.299Z,97332.00
2023-05-22T09:29:09.546Z,97333.00
2023-05-22T09:31:44.755Z,97338.00
2023-05-22T09:34:17.846Z,97338.00
2023-05-22T09:36:44.838Z,97339.00
2023-05-22T09:39:11.823Z,97344.00
2023-05-22T09:41:39.909Z,97327.00
2023-05-22T09:44:15.635Z,97330.00
2023-05-22T09:46:46.394Z,97328.00
2023-05-22T09:49:16.175Z,97335.00
2023-05-22T09:51:48.339Z,97328.00
2023-05-22T09:54:18.752Z,97325.00
2023-05-22T09:56:50.525Z,97324.00
2023-05-22T09:59:22.428Z,97322.00
2023-05-22T10:01:50.952Z,97323.00
2023-05-22T10:04:21.743Z,97326.00
2023-05-22T10:06:53.651Z,97318.00
2023-05-22T10:09:31.238Z,97316.00
2023-05-22T10:12:04.456Z,97325.00
2023-05-22T10:14:32.059Z,97310.00
2023-05-22T10:17:03.086Z,97310.00
2023-05-22T10:19:32.636Z,97312.00
2023-05-22T10:22:01.790Z,97316.00
2023-05-22T10:24:29.941Z,97314.00
2023-05-22T10:26:57.804Z,97310.00
2023-05-22T10:29:47.330Z,97302.00
2023-05-22T10:32:27.653Z,97317.00
2023-05-22T10:35:19.849Z,97304.00
2023-05-22T10:38:08.605Z,97298.00
2023-05-22T10:40:36.406Z,97297.00
2023-05-22T10:43:06.610Z,97284.00
2023-05-22T10:45:33.561Z,97288.00
2023-05-22T10:48:12.536Z,97280.00
2023-05-22T10:50:40.782Z,97287.00
2023-05-22T10:53:28.667Z,97295.00
2023-05-22T10:55:57.433Z,97294.00
2023-05-22T10:58:31.493Z,97284.00
2023-05-22T11:01:16.318Z,97296.00
2023-05-22T11:03:53.628Z,97280.00
2023-05-22T11:06:45.770Z,97286.00
2023-05-22T11:09:28.955Z,97279.00
2023-05-22T11:12:24.162Z,97283.00
2023-05-22T11:14:57.063Z,97277.00
2023-05-22T11:17:29.185Z,97280.00
2023-05-22T11:20:21.097Z,97286.00
2023-05-22T11:23:06.832Z,97275.00
2023-05-22T11:25:37.622Z,97276.00
2023-05-22T11:28:06.547Z,97271.00
2023-05-22T11:30:35.036Z,97270.00
2023-05-22T11:33:02.620Z,97280.00
2023-05-22T11:35:29.949Z,97271.00
2023-05-22T11:37:57.000Z,97269.00
2023-05-22T11:40:29.707Z,97261.00
2023-05-22T11:42:57.250Z,97261.00
2023-05-22T11:45:24.446Z,97280.00
2023-05-22T11:47:51.859Z,97270.00
2023-05-22T11:52:50.029Z,97270.00
2023-05-22T11:55:16.916Z,97270.00
2023-05-22T11:57:44.206Z,97261.00
2023-05-22T12:00:11.873Z,97261.00
2023-05-22T12:02:39.360Z,97260.00
2023-05-22T12:05:10.151Z,97254.00
2023-05-22T12:07:37.617Z,97252.00
2023-05-22T12:10:07.250Z,97243.00
2023-05-22T12:12:34.498Z,97244.00
2023-05-22T12:15:04.613Z,97238.00
2023-05-22T12:17:31.534Z,97239.00
2023-05-22T12:20:01.830Z,97233.00
2023-05-22T12:22:29.819Z,97242.00
2023-05-22T12:24:56.768Z,97259.00
2023-05-22T12:27:23.691Z,97258.00
2023-05-22T12:29:52.937Z,97246.00
2023-05-22T12:32:22.235Z,97248.00
2023-05-22T12:34:50.295Z,97265.00
2023-05-22T12:37:28.618Z,97256.00
2023-05-22T12:40:00.855Z,97255.00
2023-05-22T12:42:28.834Z,97265.00
2023-05-22T12:44:58.189Z,97262.00
2023-05-22T12:47:25.625Z,97269.00
2023-05-22T12:49:53.049Z,97270.00
2023-05-22T12:52:20.334Z,97270.00
2023-05-22T12:54:47.314Z,97265.00
2023-05-22T12:57:14.312Z,97261.00
2023-05-22T12:59:41.207Z,97264.00
2023-05-22T13:02:09.644Z,97263.00
2023-05-22T13:04:36.769Z,97275.00
2023-05-22T13:07:03.975Z,97269.00
2023-05-22T13:09:31.051Z,97264.00
2023-05-22T13:11:57.942Z,97268.00
2023-05-22T13:14:25.025Z,97278.00
2023-05-22T13:16:52.003Z,97280.00
2023-05-22T13:19:19.124Z,97265.00
2023-05-22T13:21:46.054Z,97272.00
2023-05-22T13:24:12.911Z,97272.00
2023-05-22T13:26:39.729Z,97279.00
2023-05-22T13:29:06.608Z,97273.00
2023-05-22T13:31:37.199Z,97286.00
2023-05-22T13:34:04.728Z,97302.00
2023-05-22T13:36:32.077Z,97295.00
2023-05-22T13:38:59.061Z,97318.00
2023-05-22T13:41:26.219Z,97317.00
2023-05-22T13:43:53.310Z,97329.00
2023-05-22T13:46:22.238Z,97331.00
2023-05-22T13:48:49.384Z,97322.00
2023-05-22T13:51:16.653Z,97338.00
2023-05-22T13:53:43.563Z,97342.00
2023-05-22T13:56:10.660Z,97346.00
2023-05-22T13:58:37.552Z,97343.00
2023-05-22T14:01:04.517Z,97351.00
2023-05-22T14:03:31.597Z,97346.00
2023-05-22T14:05:58.703Z,97345.00
2023-05-22T14:08:25.807Z,97354.00
2023-05-22T14:10:53.106Z,97335.00
2023-05-22T14:13:20.004Z,97350.00
2023-05-22T14:15:47.180Z,97338.00
2023-05-22T14:18:16.397Z,97339.00
2023-05-22T14:20:45.075Z,97335.00
2023-05-22T14:23:15.244Z,97343.00
2023-05-22T14:25:45.116Z,97335.00
2023-05-22T14:28:12.559Z,97328.00
2023-05-22T14:30:39.808Z,97324.00
2023-05-22T14:33:07.202Z,97336.00
2023-05-22T14:35:34.644Z,97337.00
2023-05-22T14:38:06.839Z,97323.00
2023-05-22T14:40:33.749Z,97335.00
2023-05-22T14:43:00.611Z,97334.00
2023-05-22T14:45:27.455Z,97323.00
2023-05-22T14:47:55.085Z,97333.00
2023-05-22T14:50:22.083Z,97309.00
2023-05-22T14:52:49.824Z,97319.00
2023-05-22T14:55:17.376Z,97326.00
2023-05-22T14:57:44.375Z,97303.00
2023-05-22T15:00:12.272Z,97315.00
2023-05-22T15:02:40.354Z,97316.00
2023-05-22T15:05:10.661Z,97298.00
2023-05-22T15:10:09.281Z,97291.00
2023-05-22T15:12:36.389Z,97283.00
2023-05-22T15:15:03.546Z,97282.00
2023-05-22T15:17:30.631Z,97289.00
2023-05-22T15:19:57.561Z,97290.00
2023-05-22T15:22:24.412Z,97277.00
2023-05-22T15:25:07.975Z,97290.00
2023-05-22T15:27:36.040Z,97286.00
2023-05-22T15:30:05.662Z,97280.00
2023-05-22T15:32:33.171Z,97286.00
2023-05-22T15:35:00.384Z,97286.00
2023-05-22T15:37:29.732Z,97287.00
2023-05-22T15:39:58.364Z,97282.00
2023-05-22T15:42:25.426Z,97285.00
2023-05-22T15:44:52.260Z,97287.00
2023-05-22T15:47:19.345Z,97283.00
2023-05-22T15:49:46.228Z,97288.00
2023-05-22T15:52:13.299Z,97298.00
2023-05-22T15:54:40.235Z,97299.00
2023-05-22T15:57:07.137Z,97291.00
2023-05-22T15:59:34.082Z,97293.00
2023-05-22T16:02:00.983Z,97293.00
2023-05-22T16:04:28.197Z,97289.00
2023-05-22T16:06:55.085Z,97289.00
2023-05-22T16:09:22.158Z,97283.00
2023-05-22T16:11:49.243Z,97278.00
2023-05-22T16:14:16.165Z,97277.00
2023-05-22T16:16:43.759Z,97275.00
2023-05-22T16:19:11.416Z,97274.00
2023-05-22T16:21:39.128Z,97278.00
2023-05-22T16:24:06.966Z,97265.00
2023-05-22T16:26:34.014Z,97283.00
2023-05-22T16:29:01.006Z,97283.00
2023-05-22T16:31:28.910Z,97286.00
2023-05-22T16:33:55.948Z,97281.00
2023-05-22T16:36:24.162Z,97282.00
2023-05-22T16:38:52.598Z,97273.00
2023-05-22T16:41:19.460Z,97280.00
2023-05-22T16:43:46.868Z,97267.00
2023-05-22T16:46:13.737Z,97266.00
2023-05-22T16:48:40.622Z,97263.00
2023-05-22T16:51:07.917Z,97286.00
2023-05-22T16:53:37.335Z,97273.00
2023-05-22T16:56:05.412Z,97273.00
2023-05-22T16:58:35.082Z,97275.00
2023-05-22T17:01:02.148Z,97280.00
2023-05-22T17:03:29.307Z,97278.00
2023-05-22T17:05:56.402Z,97281.00
2023-05-22T17:08:23.238Z,97278.00
2023-05-22T17:10:50.632Z,97263.00
2023-05-22T17:13:20.777Z,97273.00
2023-05-22T17:15:49.384Z,97275.00
2023-05-22T17:18:19.666Z,97287.00
2023-05-22T17:20:49.479Z,97303.00
2023-05-22T17:23:17.090Z,97293.00
2023-05-22T17:25:46.389Z,97296.00
2023-05-22T17:28:14.733Z,97300.00
2023-05-22T17:30:43.201Z,97299.00
2023-05-22T17:33:11.226Z,97302.00
2023-05-22T17:35:38.632Z,97297.00
2023-05-22T17:38:07.784Z,97293.00
2023-05-22T17:40:44.223Z,97300.00
2023-05-22T17:43:12.253Z,97302.00
2023-05-22T17:45:39.305Z,97304.00
2023-05-22T17:48:08.012Z,97309.00
2023-05-22T17:50:35.416Z,97304.00
2023-05-22T17:53:02.373Z,97321.00
2023-05-22T17:55:29.281Z,97317.00
2023-05-22T17:57:56.364Z,97323.00
2023-05-22T18:14:30.230Z,97365.00
2023-05-22T18:16:58.200Z,97356.00
2023-05-22T18:19:25.136Z,97370.00
2023-05-22T18:21:53.532Z,97363.00
2023-05-22T18:24:25.970Z,97360.00
2023-05-22T18:26:52.837Z,97362.00
2023-05-22T18:29:19.798Z,97360.00
2023-05-22T18:31:46.713Z,97359.00
2023-05-22T18:34:13.715Z,97363.00
2023-05-22T18:36:41.264Z,97361.00
2023-05-22T18:39:09.222Z,97379.00
2023-05-22T18:41:37.237Z,97380.00
2023-05-22T18:44:04.366Z,97376.00
2023-05-22T18:46:31.594Z,97384.00
2023-05-22T18:48:58.470Z,97387.00
2023-05-22T18:51:27.033Z,97376.00
2023-05-22T18:53:53.883Z,97384.00
2023-05-22T18:56:21.177Z,97382.00
2023-05-22T18:58:48.058Z,97397.00
2023-05-22T19:01:16.592Z,97393.00
2023-05-22T19:03:43.794Z,97393.00
2023-05-22T19:06:10.763Z,97406.00
2023-05-22T19:08:37.633Z,97405.00
2023-05-22T19:11:04.511Z,97410.00
2023-05-22T19:13:31.495Z,97426.00
2023-05-22T19:15:58.359Z,97423.00
2023-05-22T19:18:27.318Z,97422.00
2023-05-22T19:20:54.160Z,97428.00
2023-05-22T19:23:21.252Z,97431.00
2023-05-22T19:25:48.778Z,97448.00
2023-05-22T19:28:15.590Z,97452.00
2023-05-22T19:30:43.073Z,97445.00
2023-05-22T19:33:11.334Z,97451.00
2023-05-22T19:35:38.604Z,97452.00
2023-05-22T19:38:06.072Z,97446.00
2023-05-22T19:40:33.178Z,97459.00
2023-05-22T19:43:01.730Z,97463.00
2023-05-22T19:45:28.917Z,97450.00
2023-05-22T19:47:55.977Z,97453.00
2023-05-22T19:50:23.152Z,97461.00
2023-05-22T19:52:50.257Z,97455.00
2023-05-22T19:55:17.632Z,97450.00
2023-05-22T19:57:44.734Z,97453.00
2023-05-22T20:00:12.879Z,97460.00
2023-05-22T20:02:40.041Z,97450.00
2023-05-22T20:05:09.405Z,97450.00
2023-05-22T20:07:36.709Z,97461.00
2023-05-22T20:10:06.448Z,97466.00
2023-05-22T20:12:33.916Z,97467.00
2023-05-22T20:15:02.610Z,97459.00
2023-05-22T20:17:30.301Z,97473.00
2023-05-22T20:20:00.308Z,97472.00
2023-05-22T20:22:27.775Z,97480.00
2023-05-22T20:24:54.728Z,97476.00
2023-05-22T20:27:21.657Z,97471.00
2023-05-22T20:29:51.232Z,97473.00
2023-05-22T20:32:18.232Z,97473.00
2023-05-22T20:34:46.363Z,97476.00
2023-05-22T20:37:13.646Z,97465.00
2023-05-22T20:39:41.686Z,97472.00
2023-05-22T20:42:09.384Z,97470.00
2023-05-22T20:44:36.595Z,97462.00
2023-05-22T20:47:04.212Z,97460.00
2023-05-22T20:49:34.525Z,97462.00
2023-05-22T20:52:02.843Z,97470.00
2023-05-22T20:54:34.020Z,97470.00
2023-05-22T20:57:02.054Z,97467.00
2023-05-22T20:59:29.054Z,97465.00
2023-05-22T21:01:57.701Z,97484.00
2023-05-22T21:04:25.651Z,97477.00
2023-05-22T21:06:52.853Z,97476.00
2023-05-22T21:09:20.009Z,97481.00
2023-05-22T21:11:47.118Z,97478.00
2023-05-22T21:14:14.454Z,97485.00
2023-05-22T21:16:41.341Z,97491.00
2023-05-22T21:19:08.605Z,97485.00
2023-05-22T21:21:41.611Z,97483.00
2023-05-22T21:24:09.838Z,97479.00
2023-05-22T21:26:37.066Z,97486.00
2023-05-22T21:29:04.582Z,97492.00
2023-05-22T21:31:33.887Z,97480.00
2023-05-22T21:34:02.467Z,97478.00
2023-05-22T21:36:29.325Z,97485.00
2023-05-22T21:38:57.657Z,97479.00
2023-05-22T21:41:24.528Z,97486.00
2023-05-22T21:43:51.491Z,97485.00
2023-05-22T21:46:18.386Z,97499.00
2023-05-22T21:48:46.122Z,97491.00
2023-05-22T21:51:12.993Z,97488.00
2023-05-22T21:53:39.958Z,97490.00
2023-05-22T21:56:08.180Z,97492.00
2023-05-22T21:58:35.294Z,97494.00
2023-05-22T22:01:02.379Z,97485.00
2023-05-22T22:03:29.359Z,97489.00
2023-05-22T22:05:56.369Z,97495.00
2023-05-22T22:08:23.442Z,97496.00
2023-05-22T22:10:50.774Z,97495.00
2023-05-22T22:13:17.609Z,97490.00
2023-05-22T22:15:44.482Z,97511.00
2023-05-22T22:18:14.845Z,97511.00
2023-05-22T22:20:45.099Z,97515.00
2023-05-22T22:23:12.885Z,97510.00
2023-05-22T22:25:40.046Z,97499.00
2023-05-22T22:28:07.360Z,97496.00
2023-05-22T22:30:35.090Z,97501.00
2023-05-22T22:33:02.469Z,97488.00
2023-05-22T22:35:29.534Z,97495.00
2023-05-22T22:37:56.529Z,97499.00
2023-05-22T22:40:25.332Z,97494.00
2023-05-22T22:42:53.447Z,97494.00
2023-05-22T22:45:20.886Z,97500.00
2023-05-22T22:47:48.156Z,97491.00
2023-05-22T22:50:15.045Z,97497.00
2023-05-22T22:52:45.644Z,97490.00
2023-05-22T22:55:13.374Z,97496.00
2023-05-22T22:57:44.528Z,97515.00
2023-05-22T23:00:13.255Z,97515.00
2023-05-22T23:02:40.862Z,97521.00
2023-05-22T23:05:08.780Z,97527.00
2023-05-22T23:07:36.490Z,97522.00
2023-05-22T23:10:03.766Z,97538.00
2023-05-22T23:12:35.023Z,97529.00
2023-05-22T23:15:02.934Z,97521.00
2023-05-22T23:17:30.090Z,97526.00
2023-05-22T23:19:57.233Z,97517.00
2023-05-22T23:22:24.227Z,97520.00
2023-05-22T23:24:51.393Z,97531.00
2023-05-22T23:27:18.636Z,97527.00
2023-05-22T23:29:45.801Z,97521.00
2023-05-22T23:32:14.679Z,97521.00
2023-05-22T23:34:42.259Z,97530.00
2023-05-22T23:37:09.737Z,97522.00
2023-05-22T23:39:36.603Z,97531.00
2023-05-22T23:42:03.754Z,97520.00
2023-05-22T23:44:31.631Z,97523.00
2023-05-22T23:46:58.726Z,97526.00
2023-05-22T23:49:26.349Z,97523.00
2023-05-22T23:51:53.320Z,97521.00
2023-05-22T23:54:20.546Z,97519.00
2023-05-22T23:56:47.557Z,97520.00
2023-05-22T23:59:14.745Z,97525.00
